Flugplatz Falkenberg-Lönnewitz

Für EDUF sind keine METAR/TAF Berichte vorhanden.
Es werden die Flugwettermeldungen vom Flugplatz Holzdorf Airport in 24 km Entfernung angezeigt.

Bericht für ETSH

vom 23.08. um 12:20 UTC

Wind 4 kt aus 130°

Sichtweite 10 km oder mehr

gering bewölkt in 30000 ft

Temperatur 27.0°C

Taupunkt 10.0°C

Luftfeuchtigkeit 34%

Luftdruck 1025 hPa

ETSH 231220Z 13004KT 9999 FEW300 27/10 Q1025 BLU+

Prognose für ETSH

vom 23.08. um 00:00 UTC

Zwischen 00:00 UTC und 00:00 UTC

Wind 5 kt aus 120°

Sichtweite 10 km oder mehr

keine signifikanten Wettererscheinungen

gering bewölkt in 28000 ft

TAF AMD ETSH 231000Z 2308/2317 12005KT 9999 NSW FEW280 CANCEL 1000 BY ETGL
Impressum